sensor_id;sensor_type;location;lat;lon;timestamp;P1;P2;P0
49343;PMS5003;35210;41.606;-87.602;2022-08-05T00:01:13;10.80;10.20;6.20
49343;PMS5003;35210;41.606;-87.602;2022-08-05T00:03:47;10.00;9.60;7.00
49343;PMS5003;35210;41.606;-87.602;2022-08-05T00:06:21;6.60;6.60;2.40
49343;PMS5003;35210;41.606;-87.602;2022-08-05T00:08:50;9.20;9.20;6.40
49343;PMS5003;35210;41.606;-87.602;2022-08-05T00:11:18;10.60;10.00;7.00
49343;PMS5003;35210;41.606;-87.602;2022-08-05T00:13:46;11.00;9.40;6.20
49343;PMS5003;35210;41.606;-87.602;2022-08-05T00:16:15;12.40;9.20;5.60
49343;PMS5003;35210;41.606;-87.602;2022-08-05T00:18:45;8.20;8.00;4.60
49343;PMS5003;35210;41.606;-87.602;2022-08-05T00:21:14;8.40;5.20;2.80
49343;PMS5003;35210;41.606;-87.602;2022-08-05T00:23:44;8.80;8.00;5.00
49343;PMS5003;35210;41.606;-87.602;2022-08-05T00:26:15;7.60;6.80;4.00
49343;PMS5003;35210;41.606;-87.602;2022-08-05T00:28:44;8.60;8.60;5.80
49343;PMS5003;35210;41.606;-87.602;2022-08-05T00:31:13;8.60;8.60;5.80
49343;PMS5003;35210;41.606;-87.602;2022-08-05T00:33:41;8.80;7.00;4.20
49343;PMS5003;35210;41.606;-87.602;2022-08-05T00:36:09;10.80;7.00;5.00
49343;PMS5003;35210;41.606;-87.602;2022-08-05T00:38:38;8.00;6.80;4.40
49343;PMS5003;35210;41.606;-87.602;2022-08-05T00:41:07;7.00;7.00;5.00
49343;PMS5003;35210;41.606;-87.602;2022-08-05T00:43:37;8.80;8.80;5.00
49343;PMS5003;35210;41.606;-87.602;2022-08-05T00:46:22;6.80;6.80;5.00
49343;PMS5003;35210;41.606;-87.602;2022-08-05T00:48:50;5.80;5.80;3.20
49343;PMS5003;35210;41.606;-87.602;2022-08-05T00:51:20;6.40;5.20;3.60
49343;PMS5003;35210;41.606;-87.602;2022-08-05T00:53:49;6.20;6.20;5.00
49343;PMS5003;35210;41.606;-87.602;2022-08-05T00:56:19;6.40;6.40;5.00
49343;PMS5003;35210;41.606;-87.602;2022-08-05T00:58:48;9.00;7.60;5.20
49343;PMS5003;35210;41.606;-87.602;2022-08-05T01:01:17;11.00;9.20;6.20
49343;PMS5003;35210;41.606;-87.602;2022-08-05T01:03:49;7.00;7.00;5.40
49343;PMS5003;35210;41.606;-87.602;2022-08-05T01:06:18;8.00;8.00;6.00
49343;PMS5003;35210;41.606;-87.602;2022-08-05T01:08:47;9.40;9.40;7.00
49343;PMS5003;35210;41.606;-87.602;2022-08-05T01:11:16;6.60;6.60;5.40
49343;PMS5003;35210;41.606;-87.602;2022-08-05T01:13:54;6.00;6.00;4.80
49343;PMS5003;35210;41.606;-87.602;2022-08-05T01:16:32;9.20;7.40;4.40
49343;PMS5003;35210;41.606;-87.602;2022-08-05T01:19:09;9.80;9.20;7.00
49343;PMS5003;35210;41.606;-87.602;2022-08-05T01:21:58;8.40;8.40;7.00
49343;PMS5003;35210;41.606;-87.602;2022-08-05T01:28:14;7.00;6.00;5.00
49343;PMS5003;35210;41.606;-87.602;2022-08-05T01:30:50;7.80;6.40;5.00
49343;PMS5003;35210;41.606;-87.602;2022-08-05T01:33:22;8.60;7.00;5.00
49343;PMS5003;35210;41.606;-87.602;2022-08-05T01:35:55;7.40;7.40;6.00
49343;PMS5003;35210;41.606;-87.602;2022-08-05T01:38:25;10.80;7.40;6.00
49343;PMS5003;35210;41.606;-87.602;2022-08-05T01:40:56;6.60;6.60;4.00
49343;PMS5003;35210;41.606;-87.602;2022-08-05T01:43:32;8.00;8.00;4.40
49343;PMS5003;35210;41.606;-87.602;2022-08-05T01:46:06;8.60;7.80;4.20
49343;PMS5003;35210;41.606;-87.602;2022-08-05T01:48:35;7.60;7.00;5.20
49343;PMS5003;35210;41.606;-87.602;2022-08-05T01:51:07;7.00;7.00;4.20
49343;PMS5003;35210;41.606;-87.602;2022-08-05T01:53:36;8.00;8.00;5.00
49343;PMS5003;35210;41.606;-87.602;2022-08-05T01:56:07;9.80;8.40;6.00
49343;PMS5003;35210;41.606;-87.602;2022-08-05T01:58:39;7.80;7.80;5.20
49343;PMS5003;35210;41.606;-87.602;2022-08-05T02:01:10;8.00;7.00;4.40
49343;PMS5003;35210;41.606;-87.602;2022-08-05T02:03:42;10.40;10.00;6.00
49343;PMS5003;35210;41.606;-87.602;2022-08-05T02:06:12;9.40;8.80;6.40
49343;PMS5003;35210;41.606;-87.602;2022-08-05T02:08:41;7.40;7.40;6.00
49343;PMS5003;35210;41.606;-87.602;2022-08-05T02:11:10;7.00;5.40;4.00
49343;PMS5003;35210;41.606;-87.602;2022-08-05T02:13:43;10.40;10.40;6.60
49343;PMS5003;35210;41.606;-87.602;2022-08-05T02:16:18;11.80;10.80;7.80
49343;PMS5003;35210;41.606;-87.602;2022-08-05T02:18:49;9.60;9.60;6.00
49343;PMS5003;35210;41.606;-87.602;2022-08-05T02:21:21;8.20;8.20;6.40
49343;PMS5003;35210;41.606;-87.602;2022-08-05T02:23:55;9.40;8.20;5.80
49343;PMS5003;35210;41.606;-87.602;2022-08-05T02:26:32;9.00;9.00;6.00
49343;PMS5003;35210;41.606;-87.602;2022-08-05T02:29:07;8.20;7.20;5.40
49343;PMS5003;35210;41.606;-87.602;2022-08-05T02:31:38;9.60;9.00;5.60
49343;PMS5003;35210;41.606;-87.602;2022-08-05T02:34:09;8.60;6.40;5.00
49343;PMS5003;35210;41.606;-87.602;2022-08-05T02:36:40;9.60;8.60;7.60
49343;PMS5003;35210;41.606;-87.602;2022-08-05T02:39:11;7.60;6.60;4.00
49343;PMS5003;35210;41.606;-87.602;2022-08-05T02:41:42;6.00;6.00;6.00
49343;PMS5003;35210;41.606;-87.602;2022-08-05T02:44:15;9.00;7.20;5.80
49343;PMS5003;35210;41.606;-87.602;2022-08-05T02:46:44;8.20;8.20;6.00
49343;PMS5003;35210;41.606;-87.602;2022-08-05T02:49:14;7.20;7.20;5.00
49343;PMS5003;35210;41.606;-87.602;2022-08-05T02:51:45;7.00;6.80;4.80
49343;PMS5003;35210;41.606;-87.602;2022-08-05T02:54:14;6.80;6.80;4.40
49343;PMS5003;35210;41.606;-87.602;2022-08-05T02:56:43;3.20;3.00;2.00
49343;PMS5003;35210;41.606;-87.602;2022-08-05T02:59:12;6.00;6.00;4.20
49343;PMS5003;35210;41.606;-87.602;2022-08-05T03:01:45;6.20;5.40;4.00
49343;PMS5003;35210;41.606;-87.602;2022-08-05T03:04:16;8.20;6.60;3.60
49343;PMS5003;35210;41.606;-87.602;2022-08-05T03:06:46;6.60;6.60;5.00
49343;PMS5003;35210;41.606;-87.602;2022-08-05T03:09:14;6.00;6.00;4.00
49343;PMS5003;35210;41.606;-87.602;2022-08-05T03:11:44;7.80;6.20;4.00
49343;PMS5003;35210;41.606;-87.602;2022-08-05T03:14:12;5.60;5.60;4.00
49343;PMS5003;35210;41.606;-87.602;2022-08-05T03:16:42;7.20;6.60;4.20
49343;PMS5003;35210;41.606;-87.602;2022-08-05T03:19:10;6.60;6.60;4.00
49343;PMS5003;35210;41.606;-87.602;2022-08-05T03:21:38;6.60;6.00;4.80
49343;PMS5003;35210;41.606;-87.602;2022-08-05T03:24:06;6.20;5.00;3.20
49343;PMS5003;35210;41.606;-87.602;2022-08-05T03:26:35;6.80;6.80;5.00
49343;PMS5003;35210;41.606;-87.602;2022-08-05T03:29:05;6.00;4.60;2.00
49343;PMS5003;35210;41.606;-87.602;2022-08-05T03:31:33;5.20;5.20;3.20
49343;PMS5003;35210;41.606;-87.602;2022-08-05T03:34:04;7.20;7.20;4.00
49343;PMS5003;35210;41.606;-87.602;2022-08-05T03:36:33;5.80;5.80;4.00
49343;PMS5003;35210;41.606;-87.602;2022-08-05T03:39:05;5.00;5.00;3.20
49343;PMS5003;35210;41.606;-87.602;2022-08-05T03:41:35;5.60;5.60;3.40
49343;PMS5003;35210;41.606;-87.602;2022-08-05T03:44:03;7.20;6.20;3.00
49343;PMS5003;35210;41.606;-87.602;2022-08-05T03:46:32;4.00;4.00;3.00
49343;PMS5003;35210;41.606;-87.602;2022-08-05T03:49:01;5.00;5.00;3.00
49343;PMS5003;35210;41.606;-87.602;2022-08-05T03:51:34;6.00;5.00;4.00
49343;PMS5003;35210;41.606;-87.602;2022-08-05T03:54:06;3.40;3.40;1.80
49343;PMS5003;35210;41.606;-87.602;2022-08-05T03:56:41;4.20;4.20;3.00
49343;PMS5003;35210;41.606;-87.602;2022-08-05T03:59:12;3.00;3.00;1.40
49343;PMS5003;35210;41.606;-87.602;2022-08-05T04:01:44;5.20;5.20;4.00
49343;PMS5003;35210;41.606;-87.602;2022-08-05T04:04:14;5.40;4.40;3.00
49343;PMS5003;35210;41.606;-87.602;2022-08-05T04:06:45;5.00;3.60;2.00
49343;PMS5003;35210;41.606;-87.602;2022-08-05T04:09:15;5.00;5.00;3.00
49343;PMS5003;35210;41.606;-87.602;2022-08-05T04:11:43;5.00;5.00;3.00
49343;PMS5003;35210;41.606;-87.602;2022-08-05T04:14:12;6.00;4.80;3.00
49343;PMS5003;35210;41.606;-87.602;2022-08-05T04:16:40;5.00;5.00;3.00
49343;PMS5003;35210;41.606;-87.602;2022-08-05T04:19:09;5.40;4.00;3.00
49343;PMS5003;35210;41.606;-87.602;2022-08-05T04:21:38;5.60;5.60;5.00
49343;PMS5003;35210;41.606;-87.602;2022-08-05T04:24:08;5.80;5.80;4.00
49343;PMS5003;35210;41.606;-87.602;2022-08-05T04:26:36;4.80;4.00;2.00
49343;PMS5003;35210;41.606;-87.602;2022-08-05T04:29:04;5.00;5.00;3.00
49343;PMS5003;35210;41.606;-87.602;2022-08-05T04:31:32;3.20;3.20;2.00
49343;PMS5003;35210;41.606;-87.602;2022-08-05T04:34:00;4.00;4.00;2.60
49343;PMS5003;35210;41.606;-87.602;2022-08-05T04:36:28;5.00;5.00;3.00
49343;PMS5003;35210;41.606;-87.602;2022-08-05T04:38:56;4.20;4.20;3.00
49343;PMS5003;35210;41.606;-87.602;2022-08-05T04:41:26;3.40;3.40;3.00
49343;PMS5003;35210;41.606;-87.602;2022-08-05T04:43:54;3.80;3.80;2.20
49343;PMS5003;35210;41.606;-87.602;2022-08-05T04:46:22;5.20;4.20;3.00
49343;PMS5003;35210;41.606;-87.602;2022-08-05T04:48:50;4.00;4.00;3.00
49343;PMS5003;35210;41.606;-87.602;2022-08-05T04:51:18;2.00;2.00;1.00
49343;PMS5003;35210;41.606;-87.602;2022-08-05T04:53:46;4.40;3.20;2.00
49343;PMS5003;35210;41.606;-87.602;2022-08-05T04:56:13;3.40;3.40;2.40
49343;PMS5003;35210;41.606;-87.602;2022-08-05T04:58:43;3.80;3.80;2.00
49343;PMS5003;35210;41.606;-87.602;2022-08-05T05:01:11;3.00;3.00;2.00
49343;PMS5003;35210;41.606;-87.602;2022-08-05T05:03:39;4.00;4.00;2.00
49343;PMS5003;35210;41.606;-87.602;2022-08-05T05:06:08;5.00;4.20;3.00
49343;PMS5003;35210;41.606;-87.602;2022-08-05T05:08:37;4.60;4.00;3.00
49343;PMS5003;35210;41.606;-87.602;2022-08-05T05:11:05;3.40;3.40;3.00
49343;PMS5003;35210;41.606;-87.602;2022-08-05T05:13:33;3.60;2.60;1.40
49343;PMS5003;35210;41.606;-87.602;2022-08-05T05:16:03;3.00;3.00;2.00
49343;PMS5003;35210;41.606;-87.602;2022-08-05T05:18:32;5.60;4.60;3.00
49343;PMS5003;35210;41.606;-87.602;2022-08-05T05:21:00;3.80;3.80;3.20
49343;PMS5003;35210;41.606;-87.602;2022-08-05T05:23:29;3.00;3.00;2.00
49343;PMS5003;35210;41.606;-87.602;2022-08-05T05:25:57;5.00;3.40;2.20
49343;PMS5003;35210;41.606;-87.602;2022-08-05T05:28:26;2.80;2.80;2.00
49343;PMS5003;35210;41.606;-87.602;2022-08-05T05:30:54;2.00;2.00;1.40
49343;PMS5003;35210;41.606;-87.602;2022-08-05T05:33:26;3.40;3.40;2.00
49343;PMS5003;35210;41.606;-87.602;2022-08-05T05:35:54;3.00;3.00;2.00
49343;PMS5003;35210;41.606;-87.602;2022-08-05T05:38:22;3.20;3.20;2.80
49343;PMS5003;35210;41.606;-87.602;2022-08-05T05:40:51;3.00;3.00;2.00
49343;PMS5003;35210;41.606;-87.602;2022-08-05T05:43:19;3.60;3.60;2.00
49343;PMS5003;35210;41.606;-87.602;2022-08-05T05:45:48;2.20;2.00;1.80
49343;PMS5003;35210;41.606;-87.602;2022-08-05T05:48:17;3.00;3.00;1.20
49343;PMS5003;35210;41.606;-87.602;2022-08-05T05:50:47;3.00;3.00;3.00
49343;PMS5003;35210;41.606;-87.602;2022-08-05T05:53:16;3.00;3.00;2.00
49343;PMS5003;35210;41.606;-87.602;2022-08-05T05:55:45;2.20;2.20;1.40
49343;PMS5003;35210;41.606;-87.602;2022-08-05T05:58:13;3.00;3.00;2.40
49343;PMS5003;35210;41.606;-87.602;2022-08-05T06:00:41;3.60;3.60;3.00
49343;PMS5003;35210;41.606;-87.602;2022-08-05T06:03:10;2.80;2.80;1.80
49343;PMS5003;35210;41.606;-87.602;2022-08-05T06:05:38;3.60;3.00;3.00
49343;PMS5003;35210;41.606;-87.602;2022-08-05T06:08:07;3.20;2.40;1.40
49343;PMS5003;35210;41.606;-87.602;2022-08-05T06:10:36;5.00;5.00;3.00
49343;PMS5003;35210;41.606;-87.602;2022-08-05T06:13:05;2.20;2.20;1.40
49343;PMS5003;35210;41.606;-87.602;2022-08-05T06:15:33;5.00;5.00;3.00
49343;PMS5003;35210;41.606;-87.602;2022-08-05T06:18:01;2.60;2.60;1.20
49343;PMS5003;35210;41.606;-87.602;2022-08-05T06:20:30;4.00;4.00;3.00
49343;PMS5003;35210;41.606;-87.602;2022-08-05T06:22:58;3.00;3.00;1.80
49343;PMS5003;35210;41.606;-87.602;2022-08-05T06:25:28;4.00;4.00;2.00
49343;PMS5003;35210;41.606;-87.602;2022-08-05T06:27:57;5.80;4.60;3.00
49343;PMS5003;35210;41.606;-87.602;2022-08-05T06:30:25;4.60;3.00;2.00
49343;PMS5003;35210;41.606;-87.602;2022-08-05T06:32:53;3.20;3.20;2.00
49343;PMS5003;35210;41.606;-87.602;2022-08-05T06:35:21;3.80;3.80;3.00
49343;PMS5003;35210;41.606;-87.602;2022-08-05T06:37:49;3.60;3.60;2.00
49343;PMS5003;35210;41.606;-87.602;2022-08-05T06:40:18;4.40;4.00;3.00
49343;PMS5003;35210;41.606;-87.602;2022-08-05T06:42:47;4.00;4.00;2.40
49343;PMS5003;35210;41.606;-87.602;2022-08-05T06:45:17;4.00;4.00;2.40
49343;PMS5003;35210;41.606;-87.602;2022-08-05T06:47:45;3.00;3.00;2.00
49343;PMS5003;35210;41.606;-87.602;2022-08-05T06:50:15;4.00;4.00;2.80
49343;PMS5003;35210;41.606;-87.602;2022-08-05T06:52:42;2.20;2.20;1.20
49343;PMS5003;35210;41.606;-87.602;2022-08-05T06:55:12;4.00;4.00;3.00
49343;PMS5003;35210;41.606;-87.602;2022-08-05T06:57:41;3.80;3.80;2.60
49343;PMS5003;35210;41.606;-87.602;2022-08-05T07:00:11;4.40;4.40;2.20
49343;PMS5003;35210;41.606;-87.602;2022-08-05T07:02:42;5.00;3.20;3.00
49343;PMS5003;35210;41.606;-87.602;2022-08-05T07:05:11;3.40;3.40;2.40
49343;PMS5003;35210;41.606;-87.602;2022-08-05T07:07:40;3.40;2.40;1.40
49343;PMS5003;35210;41.606;-87.602;2022-08-05T07:10:09;4.00;4.00;2.20
49343;PMS5003;35210;41.606;-87.602;2022-08-05T07:12:37;1.80;1.80;1.20
49343;PMS5003;35210;41.606;-87.602;2022-08-05T07:15:24;3.80;3.60;2.20
49343;PMS5003;35210;41.606;-87.602;2022-08-05T07:18:09;3.20;3.20;2.00
49343;PMS5003;35210;41.606;-87.602;2022-08-05T07:20:37;4.00;4.00;2.20
49343;PMS5003;35210;41.606;-87.602;2022-08-05T07:23:05;3.80;3.00;2.00
49343;PMS5003;35210;41.606;-87.602;2022-08-05T07:25:34;5.20;4.00;3.00
49343;PMS5003;35210;41.606;-87.602;2022-08-05T07:28:02;3.40;3.40;2.20
49343;PMS5003;35210;41.606;-87.602;2022-08-05T07:30:32;3.20;3.20;2.00
49343;PMS5003;35210;41.606;-87.602;2022-08-05T07:33:02;3.00;3.00;2.00
49343;PMS5003;35210;41.606;-87.602;2022-08-05T07:35:31;5.40;4.00;2.60
49343;PMS5003;35210;41.606;-87.602;2022-08-05T07:37:59;3.00;3.00;2.00
49343;PMS5003;35210;41.606;-87.602;2022-08-05T07:40:27;4.80;4.80;3.00
49343;PMS5003;35210;41.606;-87.602;2022-08-05T07:42:55;2.00;2.00;1.00
49343;PMS5003;35210;41.606;-87.602;2022-08-05T07:45:23;8.20;5.20;3.00
49343;PMS5003;35210;41.606;-87.602;2022-08-05T07:47:53;4.00;4.00;2.20
49343;PMS5003;35210;41.606;-87.602;2022-08-05T07:50:21;5.00;5.00;3.00
49343;PMS5003;35210;41.606;-87.602;2022-08-05T07:52:49;3.00;3.00;2.00
49343;PMS5003;35210;41.606;-87.602;2022-08-05T07:55:17;3.00;3.00;2.00
49343;PMS5003;35210;41.606;-87.602;2022-08-05T07:57:46;2.80;1.80;1.00
49343;PMS5003;35210;41.606;-87.602;2022-08-05T08:00:15;4.00;4.00;2.20
49343;PMS5003;35210;41.606;-87.602;2022-08-05T08:02:43;3.40;3.40;2.00
49343;PMS5003;35210;41.606;-87.602;2022-08-05T08:05:14;3.60;3.60;2.20
49343;PMS5003;35210;41.606;-87.602;2022-08-05T08:07:42;3.80;3.20;1.40
49343;PMS5003;35210;41.606;-87.602;2022-08-05T08:10:10;3.60;3.60;2.00
49343;PMS5003;35210;41.606;-87.602;2022-08-05T08:12:38;4.80;3.00;3.00
49343;PMS5003;35210;41.606;-87.602;2022-08-05T08:15:08;5.00;5.00;3.20
49343;PMS5003;35210;41.606;-87.602;2022-08-05T08:17:37;3.60;3.60;2.00
49343;PMS5003;35210;41.606;-87.602;2022-08-05T08:20:05;4.00;4.00;3.00
49343;PMS5003;35210;41.606;-87.602;2022-08-05T08:22:35;4.60;4.60;3.00
49343;PMS5003;35210;41.606;-87.602;2022-08-05T08:25:04;3.80;3.80;2.80
49343;PMS5003;35210;41.606;-87.602;2022-08-05T08:27:32;1.00;1.00;0.60
49343;PMS5003;35210;41.606;-87.602;2022-08-05T08:30:01;4.40;4.40;2.60
49343;PMS5003;35210;41.606;-87.602;2022-08-05T08:32:29;5.00;3.80;2.80
49343;PMS5003;35210;41.606;-87.602;2022-08-05T08:35:00;4.00;4.00;3.00
49343;PMS5003;35210;41.606;-87.602;2022-08-05T08:37:28;4.40;3.40;2.20
49343;PMS5003;35210;41.606;-87.602;2022-08-05T08:39:58;4.00;4.00;3.00
49343;PMS5003;35210;41.606;-87.602;2022-08-05T08:42:26;3.20;3.20;2.00
49343;PMS5003;35210;41.606;-87.602;2022-08-05T08:44:56;4.00;4.00;3.00
49343;PMS5003;35210;41.606;-87.602;2022-08-05T08:47:26;4.80;4.00;3.00
49343;PMS5003;35210;41.606;-87.602;2022-08-05T08:49:55;3.20;3.20;2.00
49343;PMS5003;35210;41.606;-87.602;2022-08-05T08:52:24;4.80;4.80;3.00
49343;PMS5003;35210;41.606;-87.602;2022-08-05T08:54:59;4.60;4.60;3.40
49343;PMS5003;35210;41.606;-87.602;2022-08-05T08:57:29;3.00;3.00;2.00
49343;PMS5003;35210;41.606;-87.602;2022-08-05T08:59:57;5.00;5.00;3.00
49343;PMS5003;35210;41.606;-87.602;2022-08-05T09:02:26;4.00;4.00;2.00
49343;PMS5003;35210;41.606;-87.602;2022-08-05T09:04:55;2.00;2.00;1.00
49343;PMS5003;35210;41.606;-87.602;2022-08-05T09:07:23;3.80;3.20;2.00
49343;PMS5003;35210;41.606;-87.602;2022-08-05T09:09:51;3.20;3.20;2.60
49343;PMS5003;35210;41.606;-87.602;2022-08-05T09:12:21;3.20;3.00;2.00
49343;PMS5003;35210;41.606;-87.602;2022-08-05T09:14:50;6.40;4.80;2.80
49343;PMS5003;35210;41.606;-87.602;2022-08-05T09:17:19;3.00;3.00;2.00
49343;PMS5003;35210;41.606;-87.602;2022-08-05T09:19:47;3.00;3.00;1.40
49343;PMS5003;35210;41.606;-87.602;2022-08-05T09:22:15;3.00;3.00;2.00
49343;PMS5003;35210;41.606;-87.602;2022-08-05T09:24:50;2.00;2.00;1.20
49343;PMS5003;35210;41.606;-87.602;2022-08-05T09:27:33;3.60;3.60;2.60
49343;PMS5003;35210;41.606;-87.602;2022-08-05T09:30:04;4.80;3.20;2.00
49343;PMS5003;35210;41.606;-87.602;2022-08-05T09:32:33;2.80;2.40;1.40
49343;PMS5003;35210;41.606;-87.602;2022-08-05T09:35:14;5.00;5.00;3.80
49343;PMS5003;35210;41.606;-87.602;2022-08-05T09:37:48;4.40;3.60;2.60
49343;PMS5003;35210;41.606;-87.602;2022-08-05T09:40:30;4.20;4.20;3.00
49343;PMS5003;35210;41.606;-87.602;2022-08-05T09:43:01;2.40;2.40;1.80
49343;PMS5003;35210;41.606;-87.602;2022-08-05T09:45:35;3.80;3.80;2.80
49343;PMS5003;35210;41.606;-87.602;2022-08-05T09:48:23;4.20;4.20;3.00
49343;PMS5003;35210;41.606;-87.602;2022-08-05T09:50:54;5.60;4.40;3.00
49343;PMS5003;35210;41.606;-87.602;2022-08-05T09:53:24;3.60;3.60;2.80
49343;PMS5003;35210;41.606;-87.602;2022-08-05T09:55:54;3.40;3.40;2.00
49343;PMS5003;35210;41.606;-87.602;2022-08-05T09:58:25;4.00;4.00;3.00
49343;PMS5003;35210;41.606;-87.602;2022-08-05T10:00:55;5.00;5.00;3.00
49343;PMS5003;35210;41.606;-87.602;2022-08-05T10:03:24;3.00;3.00;2.00
49343;PMS5003;35210;41.606;-87.602;2022-08-05T10:06:00;5.40;5.40;2.80
49343;PMS5003;35210;41.606;-87.602;2022-08-05T10:08:30;4.60;4.60;3.00
49343;PMS5003;35210;41.606;-87.602;2022-08-05T10:10:59;4.00;3.00;2.20
49343;PMS5003;35210;41.606;-87.602;2022-08-05T10:13:35;7.40;4.40;2.00
49343;PMS5003;35210;41.606;-87.602;2022-08-05T10:16:05;4.00;4.00;2.00
49343;PMS5003;35210;41.606;-87.602;2022-08-05T10:18:34;3.40;3.40;2.00
49343;PMS5003;35210;41.606;-87.602;2022-08-05T10:21:04;4.20;4.20;3.00
49343;PMS5003;35210;41.606;-87.602;2022-08-05T10:23:34;5.00;4.80;2.00
49343;PMS5003;35210;41.606;-87.602;2022-08-05T10:26:06;4.00;4.00;2.20
49343;PMS5003;35210;41.606;-87.602;2022-08-05T10:28:38;3.80;3.80;2.60
49343;PMS5003;35210;41.606;-87.602;2022-08-05T10:31:10;4.00;3.00;2.00
49343;PMS5003;35210;41.606;-87.602;2022-08-05T10:33:39;5.20;4.40;2.40
49343;PMS5003;35210;41.606;-87.602;2022-08-05T10:36:09;4.00;4.00;3.40
49343;PMS5003;35210;41.606;-87.602;2022-08-05T10:38:37;3.80;3.20;2.40
49343;PMS5003;35210;41.606;-87.602;2022-08-05T10:41:12;4.00;4.00;2.80
49343;PMS5003;35210;41.606;-87.602;2022-08-05T10:43:56;4.00;4.00;2.80
49343;PMS5003;35210;41.606;-87.602;2022-08-05T10:46:41;3.80;3.80;3.00
49343;PMS5003;35210;41.606;-87.602;2022-08-05T10:49:10;2.00;2.00;2.00
49343;PMS5003;35210;41.606;-87.602;2022-08-05T10:51:42;5.80;5.00;3.00
49343;PMS5003;35210;41.606;-87.602;2022-08-05T10:54:11;3.20;3.20;2.60
49343;PMS5003;35210;41.606;-87.602;2022-08-05T10:56:43;5.00;5.00;3.00
49343;PMS5003;35210;41.606;-87.602;2022-08-05T10:59:17;4.00;3.00;2.00
49343;PMS5003;35210;41.606;-87.602;2022-08-05T11:01:46;6.80;5.00;3.00
49343;PMS5003;35210;41.606;-87.602;2022-08-05T11:04:15;4.00;4.00;2.80
49343;PMS5003;35210;41.606;-87.602;2022-08-05T11:09:37;6.20;4.20;2.60
49343;PMS5003;35210;41.606;-87.602;2022-08-05T11:15:16;5.00;4.00;2.60
49343;PMS5003;35210;41.606;-87.602;2022-08-05T11:17:46;4.80;4.80;3.00
49343;PMS5003;35210;41.606;-87.602;2022-08-05T11:20:38;4.60;4.00;2.20
49343;PMS5003;35210;41.606;-87.602;2022-08-05T11:23:24;5.40;4.00;2.00
49343;PMS5003;35210;41.606;-87.602;2022-08-05T11:26:00;4.40;3.20;2.00
49343;PMS5003;35210;41.606;-87.602;2022-08-05T11:28:38;5.00;4.20;2.20
49343;PMS5003;35210;41.606;-87.602;2022-08-05T11:31:27;4.00;4.00;2.20
49343;PMS5003;35210;41.606;-87.602;2022-08-05T11:34:02;4.20;3.00;2.00
49343;PMS5003;35210;41.606;-87.602;2022-08-05T11:36:42;5.80;4.60;3.00
49343;PMS5003;35210;41.606;-87.602;2022-08-05T11:39:16;5.80;5.80;4.00
49343;PMS5003;35210;41.606;-87.602;2022-08-05T11:41:59;3.40;3.40;1.60
49343;PMS5003;35210;41.606;-87.602;2022-08-05T11:44:34;2.60;2.60;1.00
49343;PMS5003;35210;41.606;-87.602;2022-08-05T11:47:06;5.40;3.60;2.40
49343;PMS5003;35210;41.606;-87.602;2022-08-05T11:49:36;5.20;3.80;2.20
49343;PMS5003;35210;41.606;-87.602;2022-08-05T11:52:05;4.60;2.60;2.00
49343;PMS5003;35210;41.606;-87.602;2022-08-05T11:54:33;5.20;5.20;4.00
49343;PMS5003;35210;41.606;-87.602;2022-08-05T11:57:03;4.00;4.00;2.20
49343;PMS5003;35210;41.606;-87.602;2022-08-05T11:59:32;4.00;4.00;2.40
49343;PMS5003;35210;41.606;-87.602;2022-08-05T12:02:02;6.80;4.20;2.40
49343;PMS5003;35210;41.606;-87.602;2022-08-05T12:04:43;4.60;4.60;3.20
49343;PMS5003;35210;41.606;-87.602;2022-08-05T12:07:13;5.00;5.00;3.20
49343;PMS5003;35210;41.606;-87.602;2022-08-05T12:09:45;5.00;3.00;2.20
49343;PMS5003;35210;41.606;-87.602;2022-08-05T12:12:19;4.00;4.00;3.00
49343;PMS5003;35210;41.606;-87.602;2022-08-05T12:14:48;4.80;4.20;2.20
49343;PMS5003;35210;41.606;-87.602;2022-08-05T12:17:17;4.00;4.00;2.60
49343;PMS5003;35210;41.606;-87.602;2022-08-05T12:19:47;4.00;4.00;2.60
49343;PMS5003;35210;41.606;-87.602;2022-08-05T12:22:17;4.00;4.00;3.00
49343;PMS5003;35210;41.606;-87.602;2022-08-05T12:24:47;4.20;4.20;2.80
49343;PMS5003;35210;41.606;-87.602;2022-08-05T12:27:19;4.00;4.00;3.20
49343;PMS5003;35210;41.606;-87.602;2022-08-05T12:29:59;6.40;4.80;3.40
49343;PMS5003;35210;41.606;-87.602;2022-08-05T12:32:30;4.00;4.00;2.00
49343;PMS5003;35210;41.606;-87.602;2022-08-05T12:35:00;3.40;3.40;2.40
49343;PMS5003;35210;41.606;-87.602;2022-08-05T12:37:28;3.60;2.20;1.00
49343;PMS5003;35210;41.606;-87.602;2022-08-05T12:39:57;3.40;3.40;3.00
49343;PMS5003;35210;41.606;-87.602;2022-08-05T12:42:27;4.00;4.00;3.00
49343;PMS5003;35210;41.606;-87.602;2022-08-05T12:45:01;2.00;1.00;0.00
49343;PMS5003;35210;41.606;-87.602;2022-08-05T12:47:31;5.00;3.40;3.00
49343;PMS5003;35210;41.606;-87.602;2022-08-05T12:50:10;6.40;5.00;3.00
49343;PMS5003;35210;41.606;-87.602;2022-08-05T12:52:40;4.80;4.60;3.00
49343;PMS5003;35210;41.606;-87.602;2022-08-05T12:55:15;4.80;3.20;2.00
49343;PMS5003;35210;41.606;-87.602;2022-08-05T12:57:44;6.20;6.20;3.80
49343;PMS5003;35210;41.606;-87.602;2022-08-05T13:00:18;6.60;4.80;3.80
49343;PMS5003;35210;41.606;-87.602;2022-08-05T13:02:47;7.00;6.00;4.00
49343;PMS5003;35210;41.606;-87.602;2022-08-05T13:05:17;6.20;6.20;3.60
49343;PMS5003;35210;41.606;-87.602;2022-08-05T13:07:45;6.40;5.00;3.00
49343;PMS5003;35210;41.606;-87.602;2022-08-05T13:10:14;7.00;5.60;3.00
49343;PMS5003;35210;41.606;-87.602;2022-08-05T13:12:43;8.00;7.40;4.00
49343;PMS5003;35210;41.606;-87.602;2022-08-05T13:15:13;5.60;5.60;3.00
49343;PMS5003;35210;41.606;-87.602;2022-08-05T13:17:48;4.20;4.20;2.40
49343;PMS5003;35210;41.606;-87.602;2022-08-05T13:20:22;6.00;6.00;4.00
49343;PMS5003;35210;41.606;-87.602;2022-08-05T13:23:01;7.00;7.00;4.00
49343;PMS5003;35210;41.606;-87.602;2022-08-05T13:25:30;8.00;7.40;5.00
49343;PMS5003;35210;41.606;-87.602;2022-08-05T13:28:13;6.40;5.20;4.00
49343;PMS5003;35210;41.606;-87.602;2022-08-05T13:30:46;13.80;13.60;8.80
49343;PMS5003;35210;41.606;-87.602;2022-08-05T13:33:16;16.00;13.40;8.60
49343;PMS5003;35210;41.606;-87.602;2022-08-05T13:35:46;14.00;14.00;8.40
49343;PMS5003;35210;41.606;-87.602;2022-08-05T13:38:14;22.00;17.20;10.40
49343;PMS5003;35210;41.606;-87.602;2022-08-05T13:40:43;17.40;13.00;8.40
49343;PMS5003;35210;41.606;-87.602;2022-08-05T13:43:11;20.20;19.00;13.00
49343;PMS5003;35210;41.606;-87.602;2022-08-05T13:45:40;18.80;12.60;8.00
49343;PMS5003;35210;41.606;-87.602;2022-08-05T13:48:08;22.40;15.80;10.20
49343;PMS5003;35210;41.606;-87.602;2022-08-05T13:50:36;17.20;15.60;9.00
49343;PMS5003;35210;41.606;-87.602;2022-08-05T13:53:06;15.40;14.20;8.20
49343;PMS5003;35210;41.606;-87.602;2022-08-05T13:55:34;19.00;15.20;11.00
49343;PMS5003;35210;41.606;-87.602;2022-08-05T13:58:02;15.00;12.80;8.20
49343;PMS5003;35210;41.606;-87.602;2022-08-05T14:00:31;18.60;16.80;9.60
49343;PMS5003;35210;41.606;-87.602;2022-08-05T14:03:01;16.40;14.40;8.20
49343;PMS5003;35210;41.606;-87.602;2022-08-05T14:05:30;13.60;13.60;8.80
49343;PMS5003;35210;41.606;-87.602;2022-08-05T14:07:58;16.20;13.20;9.00
49343;PMS5003;35210;41.606;-87.602;2022-08-05T14:10:28;13.20;12.20;7.00
49343;PMS5003;35210;41.606;-87.602;2022-08-05T14:12:56;11.20;10.00;7.00
49343;PMS5003;35210;41.606;-87.602;2022-08-05T14:15:25;12.20;9.20;5.00
49343;PMS5003;35210;41.606;-87.602;2022-08-05T14:17:55;12.00;11.00;7.40
49343;PMS5003;35210;41.606;-87.602;2022-08-05T14:20:24;13.60;12.40;7.00
49343;PMS5003;35210;41.606;-87.602;2022-08-05T14:22:54;11.40;10.00;7.40
49343;PMS5003;35210;41.606;-87.602;2022-08-05T14:25:22;12.40;11.40;6.40